sensor_id;sensor_type;location;lat;lon;timestamp;P1;durP1;ratioP1;P2;durP2;ratioP2
27013;SDS011;14556;52.222;4.510;2022-08-19T00:01:34;7.63;;;4.50;;
27013;SDS011;14556;52.222;4.510;2022-08-19T00:04:04;7.50;;;5.00;;
27013;SDS011;14556;52.222;4.510;2022-08-19T00:06:33;8.20;;;5.10;;
27013;SDS011;14556;52.222;4.510;2022-08-19T00:09:02;8.27;;;5.17;;
27013;SDS011;14556;52.222;4.510;2022-08-19T00:11:30;7.43;;;4.60;;
27013;SDS011;14556;52.222;4.510;2022-08-19T00:13:57;8.57;;;4.87;;
27013;SDS011;14556;52.222;4.510;2022-08-19T00:16:24;7.43;;;4.70;;
27013;SDS011;14556;52.222;4.510;2022-08-19T00:18:52;6.80;;;4.90;;
27013;SDS011;14556;52.222;4.510;2022-08-19T00:21:22;7.10;;;4.80;;
27013;SDS011;14556;52.222;4.510;2022-08-19T00:23:53;7.40;;;4.37;;
27013;SDS011;14556;52.222;4.510;2022-08-19T00:26:24;9.30;;;4.60;;
27013;SDS011;14556;52.222;4.510;2022-08-19T00:28:51;7.17;;;4.60;;
27013;SDS011;14556;52.222;4.510;2022-08-19T00:31:18;6.87;;;4.80;;
27013;SDS011;14556;52.222;4.510;2022-08-19T00:33:44;7.67;;;5.10;;
27013;SDS011;14556;52.222;4.510;2022-08-19T00:36:11;8.47;;;5.73;;
27013;SDS011;14556;52.222;4.510;2022-08-19T00:38:38;6.57;;;4.83;;
27013;SDS011;14556;52.222;4.510;2022-08-19T00:41:12;6.07;;;5.00;;
27013;SDS011;14556;52.222;4.510;2022-08-19T00:43:41;8.83;;;5.17;;
27013;SDS011;14556;52.222;4.510;2022-08-19T00:46:07;6.90;;;5.20;;
27013;SDS011;14556;52.222;4.510;2022-08-19T00:48:34;8.10;;;4.90;;
27013;SDS011;14556;52.222;4.510;2022-08-19T00:51:03;7.03;;;5.00;;
27013;SDS011;14556;52.222;4.510;2022-08-19T00:53:31;8.37;;;5.10;;
27013;SDS011;14556;52.222;4.510;2022-08-19T00:55:58;7.33;;;5.33;;
27013;SDS011;14556;52.222;4.510;2022-08-19T00:58:28;9.90;;;5.17;;
27013;SDS011;14556;52.222;4.510;2022-08-19T01:00:58;7.13;;;5.00;;
27013;SDS011;14556;52.222;4.510;2022-08-19T01:03:26;7.37;;;5.57;;
27013;SDS011;14556;52.222;4.510;2022-08-19T01:05:53;7.07;;;4.77;;
27013;SDS011;14556;52.222;4.510;2022-08-19T01:08:21;10.20;;;5.30;;
27013;SDS011;14556;52.222;4.510;2022-08-19T01:10:49;6.57;;;4.90;;
27013;SDS011;14556;52.222;4.510;2022-08-19T01:13:20;5.67;;;4.13;;
27013;SDS011;14556;52.222;4.510;2022-08-19T01:16:07;6.00;;;4.33;;
27013;SDS011;14556;52.222;4.510;2022-08-19T01:18:36;8.57;;;4.40;;
27013;SDS011;14556;52.222;4.510;2022-08-19T01:21:24;5.63;;;4.33;;
27013;SDS011;14556;52.222;4.510;2022-08-19T01:23:58;6.97;;;4.40;;
27013;SDS011;14556;52.222;4.510;2022-08-19T01:26:25;7.03;;;4.87;;
27013;SDS011;14556;52.222;4.510;2022-08-19T01:28:54;12.03;;;5.13;;
27013;SDS011;14556;52.222;4.510;2022-08-19T01:31:26;9.07;;;5.10;;
27013;SDS011;14556;52.222;4.510;2022-08-19T01:33:59;10.73;;;5.77;;
27013;SDS011;14556;52.222;4.510;2022-08-19T01:36:29;11.23;;;5.53;;
27013;SDS011;14556;52.222;4.510;2022-08-19T01:38:59;6.50;;;5.60;;
27013;SDS011;14556;52.222;4.510;2022-08-19T01:41:28;9.67;;;5.93;;
27013;SDS011;14556;52.222;4.510;2022-08-19T01:43:54;7.23;;;5.80;;
27013;SDS011;14556;52.222;4.510;2022-08-19T01:46:42;10.50;;;5.70;;
27013;SDS011;14556;52.222;4.510;2022-08-19T01:49:09;8.30;;;5.63;;
27013;SDS011;14556;52.222;4.510;2022-08-19T01:51:36;10.83;;;6.20;;
27013;SDS011;14556;52.222;4.510;2022-08-19T01:54:05;7.77;;;5.63;;
27013;SDS011;14556;52.222;4.510;2022-08-19T01:56:33;8.67;;;5.90;;
27013;SDS011;14556;52.222;4.510;2022-08-19T01:59:03;9.83;;;5.93;;
27013;SDS011;14556;52.222;4.510;2022-08-19T02:01:35;8.47;;;6.60;;
27013;SDS011;14556;52.222;4.510;2022-08-19T02:04:02;8.00;;;5.87;;
27013;SDS011;14556;52.222;4.510;2022-08-19T02:06:29;11.87;;;6.30;;
27013;SDS011;14556;52.222;4.510;2022-08-19T02:08:56;9.10;;;7.00;;
27013;SDS011;14556;52.222;4.510;2022-08-19T02:11:27;12.80;;;6.67;;
27013;SDS011;14556;52.222;4.510;2022-08-19T02:13:57;12.77;;;6.83;;
27013;SDS011;14556;52.222;4.510;2022-08-19T02:16:24;10.47;;;6.90;;
27013;SDS011;14556;52.222;4.510;2022-08-19T02:18:51;11.40;;;6.40;;
27013;SDS011;14556;52.222;4.510;2022-08-19T02:21:18;10.67;;;6.80;;
27013;SDS011;14556;52.222;4.510;2022-08-19T02:23:46;10.47;;;6.57;;
27013;SDS011;14556;52.222;4.510;2022-08-19T02:26:13;9.83;;;7.33;;
27013;SDS011;14556;52.222;4.510;2022-08-19T02:28:40;11.60;;;7.60;;
27013;SDS011;14556;52.222;4.510;2022-08-19T02:31:09;11.53;;;7.93;;
27013;SDS011;14556;52.222;4.510;2022-08-19T02:33:41;12.93;;;8.00;;
27013;SDS011;14556;52.222;4.510;2022-08-19T02:36:08;11.77;;;8.43;;
27013;SDS011;14556;52.222;4.510;2022-08-19T02:38:35;12.13;;;8.53;;
27013;SDS011;14556;52.222;4.510;2022-08-19T02:41:07;16.93;;;9.90;;
27013;SDS011;14556;52.222;4.510;2022-08-19T02:43:38;17.80;;;11.67;;
27013;SDS011;14556;52.222;4.510;2022-08-19T02:46:27;15.70;;;11.17;;
27013;SDS011;14556;52.222;4.510;2022-08-19T02:48:57;19.43;;;12.27;;
27013;SDS011;14556;52.222;4.510;2022-08-19T02:51:35;18.63;;;12.57;;
27013;SDS011;14556;52.222;4.510;2022-08-19T02:54:04;21.67;;;12.33;;
27013;SDS011;14556;52.222;4.510;2022-08-19T02:56:34;19.73;;;12.50;;
27013;SDS011;14556;52.222;4.510;2022-08-19T02:59:03;22.23;;;13.73;;
27013;SDS011;14556;52.222;4.510;2022-08-19T03:01:37;21.13;;;14.43;;
27013;SDS011;14556;52.222;4.510;2022-08-19T03:04:07;23.23;;;14.17;;
27013;SDS011;14556;52.222;4.510;2022-08-19T03:06:39;25.70;;;14.67;;
27013;SDS011;14556;52.222;4.510;2022-08-19T03:09:08;26.33;;;15.77;;
27013;SDS011;14556;52.222;4.510;2022-08-19T03:11:35;26.20;;;15.20;;
27013;SDS011;14556;52.222;4.510;2022-08-19T03:14:02;22.03;;;13.73;;
27013;SDS011;14556;52.222;4.510;2022-08-19T03:16:31;16.50;;;10.70;;
27013;SDS011;14556;52.222;4.510;2022-08-19T03:19:00;28.60;;;15.93;;
27013;SDS011;14556;52.222;4.510;2022-08-19T03:21:29;24.87;;;14.67;;
27013;SDS011;14556;52.222;4.510;2022-08-19T03:23:59;29.87;;;16.90;;
27013;SDS011;14556;52.222;4.510;2022-08-19T03:26:30;29.77;;;15.67;;
27013;SDS011;14556;52.222;4.510;2022-08-19T03:28:57;27.07;;;14.97;;
27013;SDS011;14556;52.222;4.510;2022-08-19T03:31:30;33.40;;;16.13;;
27013;SDS011;14556;52.222;4.510;2022-08-19T03:34:21;24.33;;;14.27;;
27013;SDS011;14556;52.222;4.510;2022-08-19T03:36:57;26.27;;;13.23;;
27013;SDS011;14556;52.222;4.510;2022-08-19T03:39:25;19.43;;;12.10;;
27013;SDS011;14556;52.222;4.510;2022-08-19T03:41:52;16.60;;;10.50;;
27013;SDS011;14556;52.222;4.510;2022-08-19T03:44:42;29.70;;;15.53;;
27013;SDS011;14556;52.222;4.510;2022-08-19T03:47:10;22.30;;;13.43;;
27013;SDS011;14556;52.222;4.510;2022-08-19T03:49:42;23.40;;;14.27;;
27013;SDS011;14556;52.222;4.510;2022-08-19T03:52:09;23.10;;;12.93;;
27013;SDS011;14556;52.222;4.510;2022-08-19T03:54:35;17.77;;;10.93;;
27013;SDS011;14556;52.222;4.510;2022-08-19T03:57:02;23.07;;;13.53;;
27013;SDS011;14556;52.222;4.510;2022-08-19T03:59:30;28.67;;;15.00;;
27013;SDS011;14556;52.222;4.510;2022-08-19T04:02:00;27.63;;;14.30;;
27013;SDS011;14556;52.222;4.510;2022-08-19T04:04:29;19.40;;;12.03;;
27013;SDS011;14556;52.222;4.510;2022-08-19T04:06:57;27.57;;;14.07;;
27013;SDS011;14556;52.222;4.510;2022-08-19T04:09:24;27.30;;;15.50;;
27013;SDS011;14556;52.222;4.510;2022-08-19T04:11:52;27.10;;;14.80;;
27013;SDS011;14556;52.222;4.510;2022-08-19T04:14:21;27.43;;;14.80;;
27013;SDS011;14556;52.222;4.510;2022-08-19T04:16:50;22.20;;;13.67;;
27013;SDS011;14556;52.222;4.510;2022-08-19T04:19:18;28.57;;;16.47;;
27013;SDS011;14556;52.222;4.510;2022-08-19T04:21:46;27.70;;;16.00;;
27013;SDS011;14556;52.222;4.510;2022-08-19T04:24:15;32.27;;;17.40;;
27013;SDS011;14556;52.222;4.510;2022-08-19T04:26:42;35.20;;;17.70;;
27013;SDS011;14556;52.222;4.510;2022-08-19T04:29:12;29.87;;;14.10;;
27013;SDS011;14556;52.222;4.510;2022-08-19T04:31:41;28.30;;;16.57;;
27013;SDS011;14556;52.222;4.510;2022-08-19T04:34:10;31.90;;;16.83;;
27013;SDS011;14556;52.222;4.510;2022-08-19T04:36:38;22.77;;;13.30;;
27013;SDS011;14556;52.222;4.510;2022-08-19T04:39:11;29.83;;;17.47;;
27013;SDS011;14556;52.222;4.510;2022-08-19T04:41:40;25.37;;;12.93;;
27013;SDS011;14556;52.222;4.510;2022-08-19T04:44:24;31.37;;;16.57;;
27013;SDS011;14556;52.222;4.510;2022-08-19T04:46:52;29.70;;;17.03;;
27013;SDS011;14556;52.222;4.510;2022-08-19T04:49:19;26.77;;;14.67;;
27013;SDS011;14556;52.222;4.510;2022-08-19T04:51:49;35.50;;;17.90;;
27013;SDS011;14556;52.222;4.510;2022-08-19T04:54:17;36.17;;;18.27;;
27013;SDS011;14556;52.222;4.510;2022-08-19T04:57:04;22.53;;;12.83;;
27013;SDS011;14556;52.222;4.510;2022-08-19T04:59:33;38.93;;;19.53;;
27013;SDS011;14556;52.222;4.510;2022-08-19T05:02:00;36.97;;;19.27;;
27013;SDS011;14556;52.222;4.510;2022-08-19T05:04:28;32.20;;;16.83;;
27013;SDS011;14556;52.222;4.510;2022-08-19T05:06:58;32.87;;;16.13;;
27013;SDS011;14556;52.222;4.510;2022-08-19T05:09:27;35.07;;;17.40;;
27013;SDS011;14556;52.222;4.510;2022-08-19T05:12:15;40.63;;;17.87;;
27013;SDS011;14556;52.222;4.510;2022-08-19T05:14:42;51.87;;;23.30;;
27013;SDS011;14556;52.222;4.510;2022-08-19T05:17:09;45.97;;;22.20;;
27013;SDS011;14556;52.222;4.510;2022-08-19T05:19:55;46.97;;;21.17;;
27013;SDS011;14556;52.222;4.510;2022-08-19T05:22:42;42.90;;;21.03;;
27013;SDS011;14556;52.222;4.510;2022-08-19T05:25:11;35.80;;;17.50;;
27013;SDS011;14556;52.222;4.510;2022-08-19T05:27:40;35.43;;;17.60;;
27013;SDS011;14556;52.222;4.510;2022-08-19T05:30:08;26.37;;;14.67;;
27013;SDS011;14556;52.222;4.510;2022-08-19T05:32:37;44.27;;;20.37;;
27013;SDS011;14556;52.222;4.510;2022-08-19T05:35:04;37.93;;;19.57;;
27013;SDS011;14556;52.222;4.510;2022-08-19T05:37:31;43.57;;;21.57;;
27013;SDS011;14556;52.222;4.510;2022-08-19T05:39:59;29.00;;;16.40;;
27013;SDS011;14556;52.222;4.510;2022-08-19T05:42:26;44.70;;;21.40;;
27013;SDS011;14556;52.222;4.510;2022-08-19T05:44:52;41.17;;;20.83;;
27013;SDS011;14556;52.222;4.510;2022-08-19T05:47:19;56.37;;;23.60;;
27013;SDS011;14556;52.222;4.510;2022-08-19T05:49:46;43.43;;;20.33;;
27013;SDS011;14556;52.222;4.510;2022-08-19T05:52:15;40.23;;;19.27;;
27013;SDS011;14556;52.222;4.510;2022-08-19T05:54:44;39.77;;;18.20;;
27013;SDS011;14556;52.222;4.510;2022-08-19T05:57:16;36.00;;;16.80;;
27013;SDS011;14556;52.222;4.510;2022-08-19T05:59:46;48.90;;;20.60;;
27013;SDS011;14556;52.222;4.510;2022-08-19T06:02:18;43.83;;;21.27;;
27013;SDS011;14556;52.222;4.510;2022-08-19T06:04:44;38.70;;;18.33;;
27013;SDS011;14556;52.222;4.510;2022-08-19T06:07:11;46.30;;;21.77;;
27013;SDS011;14556;52.222;4.510;2022-08-19T06:09:38;40.37;;;19.47;;
27013;SDS011;14556;52.222;4.510;2022-08-19T06:12:06;34.23;;;17.23;;
27013;SDS011;14556;52.222;4.510;2022-08-19T06:14:33;43.83;;;19.50;;
27013;SDS011;14556;52.222;4.510;2022-08-19T06:17:06;38.57;;;18.93;;
27013;SDS011;14556;52.222;4.510;2022-08-19T06:19:33;30.77;;;15.90;;
27013;SDS011;14556;52.222;4.510;2022-08-19T06:22:06;38.40;;;19.27;;
27013;SDS011;14556;52.222;4.510;2022-08-19T06:24:33;35.23;;;17.23;;
27013;SDS011;14556;52.222;4.510;2022-08-19T06:27:00;39.87;;;18.30;;
27013;SDS011;14556;52.222;4.510;2022-08-19T06:29:27;47.17;;;19.93;;
27013;SDS011;14556;52.222;4.510;2022-08-19T06:31:57;38.10;;;18.93;;
27013;SDS011;14556;52.222;4.510;2022-08-19T06:34:26;41.53;;;19.53;;
27013;SDS011;14556;52.222;4.510;2022-08-19T06:36:54;31.97;;;16.37;;
27013;SDS011;14556;52.222;4.510;2022-08-19T06:39:23;40.40;;;18.00;;
27013;SDS011;14556;52.222;4.510;2022-08-19T06:41:52;29.07;;;15.47;;
27013;SDS011;14556;52.222;4.510;2022-08-19T06:44:25;34.83;;;16.83;;
27013;SDS011;14556;52.222;4.510;2022-08-19T06:46:55;34.67;;;17.27;;
27013;SDS011;14556;52.222;4.510;2022-08-19T06:49:22;26.50;;;14.77;;
27013;SDS011;14556;52.222;4.510;2022-08-19T06:51:49;28.30;;;15.50;;
27013;SDS011;14556;52.222;4.510;2022-08-19T06:54:17;34.50;;;15.90;;
27013;SDS011;14556;52.222;4.510;2022-08-19T06:56:45;36.40;;;17.00;;
27013;SDS011;14556;52.222;4.510;2022-08-19T06:59:13;29.60;;;16.73;;
27013;SDS011;14556;52.222;4.510;2022-08-19T07:01:48;32.00;;;15.73;;
27013;SDS011;14556;52.222;4.510;2022-08-19T07:04:18;30.10;;;14.97;;
27013;SDS011;14556;52.222;4.510;2022-08-19T07:06:47;24.63;;;14.83;;
27013;SDS011;14556;52.222;4.510;2022-08-19T07:09:20;29.50;;;14.57;;
27013;SDS011;14556;52.222;4.510;2022-08-19T07:11:48;27.17;;;13.70;;
27013;SDS011;14556;52.222;4.510;2022-08-19T07:14:17;28.80;;;13.43;;
27013;SDS011;14556;52.222;4.510;2022-08-19T07:16:46;29.97;;;13.63;;
27013;SDS011;14556;52.222;4.510;2022-08-19T07:19:15;27.73;;;12.90;;
27013;SDS011;14556;52.222;4.510;2022-08-19T07:21:44;29.40;;;12.77;;
27013;SDS011;14556;52.222;4.510;2022-08-19T07:24:12;27.37;;;11.73;;
27013;SDS011;14556;52.222;4.510;2022-08-19T07:26:40;19.20;;;10.27;;
27013;SDS011;14556;52.222;4.510;2022-08-19T07:29:08;19.70;;;10.50;;
27013;SDS011;14556;52.222;4.510;2022-08-19T07:31:36;21.90;;;10.30;;
27013;SDS011;14556;52.222;4.510;2022-08-19T07:34:04;19.77;;;10.20;;
27013;SDS011;14556;52.222;4.510;2022-08-19T07:36:36;15.90;;;9.10;;
27013;SDS011;14556;52.222;4.510;2022-08-19T07:39:07;18.90;;;10.27;;
27013;SDS011;14556;52.222;4.510;2022-08-19T07:41:37;14.00;;;8.10;;
27013;SDS011;14556;52.222;4.510;2022-08-19T07:44:04;15.70;;;8.47;;
27013;SDS011;14556;52.222;4.510;2022-08-19T07:46:34;10.73;;;6.20;;
27013;SDS011;14556;52.222;4.510;2022-08-19T07:49:04;10.97;;;6.73;;
27013;SDS011;14556;52.222;4.510;2022-08-19T07:51:32;13.30;;;7.03;;
27013;SDS011;14556;52.222;4.510;2022-08-19T07:54:02;12.10;;;7.30;;
27013;SDS011;14556;52.222;4.510;2022-08-19T07:56:29;11.20;;;6.30;;
27013;SDS011;14556;52.222;4.510;2022-08-19T07:58:55;9.97;;;6.00;;
27013;SDS011;14556;52.222;4.510;2022-08-19T08:01:27;9.83;;;5.97;;
27013;SDS011;14556;52.222;4.510;2022-08-19T08:03:55;10.03;;;6.17;;
27013;SDS011;14556;52.222;4.510;2022-08-19T08:06:41;15.40;;;6.30;;
27013;SDS011;14556;52.222;4.510;2022-08-19T08:09:30;11.43;;;6.07;;
27013;SDS011;14556;52.222;4.510;2022-08-19T08:12:02;10.07;;;5.57;;
27013;SDS011;14556;52.222;4.510;2022-08-19T08:14:53;7.63;;;5.23;;
27013;SDS011;14556;52.222;4.510;2022-08-19T08:17:33;10.77;;;5.30;;
27013;SDS011;14556;52.222;4.510;2022-08-19T08:20:16;14.63;;;5.60;;
27013;SDS011;14556;52.222;4.510;2022-08-19T08:22:45;9.37;;;5.73;;
27013;SDS011;14556;52.222;4.510;2022-08-19T08:25:31;10.00;;;5.33;;
27013;SDS011;14556;52.222;4.510;2022-08-19T08:28:00;9.70;;;5.47;;
27013;SDS011;14556;52.222;4.510;2022-08-19T08:30:28;10.93;;;5.50;;
27013;SDS011;14556;52.222;4.510;2022-08-19T08:32:58;8.57;;;5.60;;
27013;SDS011;14556;52.222;4.510;2022-08-19T08:35:27;8.60;;;5.17;;
27013;SDS011;14556;52.222;4.510;2022-08-19T08:37:54;9.23;;;5.30;;
27013;SDS011;14556;52.222;4.510;2022-08-19T08:40:25;11.03;;;5.33;;
27013;SDS011;14556;52.222;4.510;2022-08-19T08:46:01;11.27;;;4.60;;
27013;SDS011;14556;52.222;4.510;2022-08-19T08:51:12;7.13;;;4.40;;
27013;SDS011;14556;52.222;4.510;2022-08-19T08:53:45;9.30;;;5.63;;
27013;SDS011;14556;52.222;4.510;2022-08-19T08:56:14;11.57;;;5.33;;
27013;SDS011;14556;52.222;4.510;2022-08-19T09:01:35;10.70;;;5.27;;
27013;SDS011;14556;52.222;4.510;2022-08-19T09:04:04;8.97;;;5.30;;
27013;SDS011;14556;52.222;4.510;2022-08-19T09:06:40;10.03;;;5.17;;
27013;SDS011;14556;52.222;4.510;2022-08-19T09:09:20;6.90;;;4.17;;
27013;SDS011;14556;52.222;4.510;2022-08-19T09:15:09;10.10;;;4.90;;
27013;SDS011;14556;52.222;4.510;2022-08-19T09:17:38;6.80;;;4.40;;
27013;SDS011;14556;52.222;4.510;2022-08-19T09:22:35;8.47;;;4.43;;
27013;SDS011;14556;52.222;4.510;2022-08-19T09:25:07;7.60;;;3.97;;
27013;SDS011;14556;52.222;4.510;2022-08-19T09:27:36;10.15;;;3.80;;
27013;SDS011;14556;52.222;4.510;2022-08-19T09:30:21;6.97;;;4.10;;
27013;SDS011;14556;52.222;4.510;2022-08-19T09:32:52;7.67;;;3.77;;
27013;SDS011;14556;52.222;4.510;2022-08-19T09:35:22;6.80;;;3.57;;
27013;SDS011;14556;52.222;4.510;2022-08-19T09:37:53;8.33;;;3.53;;
27013;SDS011;14556;52.222;4.510;2022-08-19T09:40:24;7.20;;;3.60;;
27013;SDS011;14556;52.222;4.510;2022-08-19T09:42:55;6.87;;;3.27;;
27013;SDS011;14556;52.222;4.510;2022-08-19T09:45:23;8.27;;;3.80;;
27013;SDS011;14556;52.222;4.510;2022-08-19T09:47:50;9.17;;;3.73;;
27013;SDS011;14556;52.222;4.510;2022-08-19T09:50:19;8.73;;;3.20;;
27013;SDS011;14556;52.222;4.510;2022-08-19T09:52:47;6.47;;;3.27;;
27013;SDS011;14556;52.222;4.510;2022-08-19T09:55:22;8.53;;;3.10;;
27013;SDS011;14556;52.222;4.510;2022-08-19T09:57:49;6.00;;;3.13;;
27013;SDS011;14556;52.222;4.510;2022-08-19T10:00:15;7.20;;;3.20;;
27013;SDS011;14556;52.222;4.510;2022-08-19T10:02:42;8.47;;;2.93;;
27013;SDS011;14556;52.222;4.510;2022-08-19T10:05:10;7.13;;;3.27;;
27013;SDS011;14556;52.222;4.510;2022-08-19T10:07:56;6.77;;;3.10;;
27013;SDS011;14556;52.222;4.510;2022-08-19T10:10:22;9.07;;;2.90;;
27013;SDS011;14556;52.222;4.510;2022-08-19T10:12:50;7.53;;;3.57;;
27013;SDS011;14556;52.222;4.510;2022-08-19T10:15:16;31.60;;;5.67;;
27013;SDS011;14556;52.222;4.510;2022-08-19T10:17:55;11.50;;;4.23;;
27013;SDS011;14556;52.222;4.510;2022-08-19T10:20:23;20.90;;;5.00;;
27013;SDS011;14556;52.222;4.510;2022-08-19T10:22:51;13.17;;;3.80;;
27013;SDS011;14556;52.222;4.510;2022-08-19T10:25:18;14.13;;;4.57;;
27013;SDS011;14556;52.222;4.510;2022-08-19T10:27:45;9.67;;;4.97;;
27013;SDS011;14556;52.222;4.510;2022-08-19T10:30:16;13.97;;;3.73;;
27013;SDS011;14556;52.222;4.510;2022-08-19T10:32:45;6.27;;;3.67;;
27013;SDS011;14556;52.222;4.510;2022-08-19T10:35:12;12.07;;;3.30;;
27013;SDS011;14556;52.222;4.510;2022-08-19T10:37:46;5.90;;;3.37;;
27013;SDS011;14556;52.222;4.510;2022-08-19T10:40:22;13.17;;;3.00;;
27013;SDS011;14556;52.222;4.510;2022-08-19T10:42:49;8.23;;;2.80;;
27013;SDS011;14556;52.222;4.510;2022-08-19T10:45:16;7.53;;;2.73;;
27013;SDS011;14556;52.222;4.510;2022-08-19T10:47:43;5.50;;;2.70;;
27013;SDS011;14556;52.222;4.510;2022-08-19T10:50:09;6.93;;;2.67;;
27013;SDS011;14556;52.222;4.510;2022-08-19T10:52:55;7.13;;;3.20;;
27013;SDS011;14556;52.222;4.510;2022-08-19T10:55:22;7.53;;;2.50;;
27013;SDS011;14556;52.222;4.510;2022-08-19T10:58:12;6.03;;;2.67;;
27013;SDS011;14556;52.222;4.510;2022-08-19T11:00:40;5.50;;;2.33;;
27013;SDS011;14556;52.222;4.510;2022-08-19T11:03:09;8.27;;;2.87;;
27013;SDS011;14556;52.222;4.510;2022-08-19T11:05:36;4.43;;;2.67;;
27013;SDS011;14556;52.222;4.510;2022-08-19T11:08:05;5.93;;;2.27;;
27013;SDS011;14556;52.222;4.510;2022-08-19T11:10:49;6.13;;;2.77;;
27013;SDS011;14556;52.222;4.510;2022-08-19T11:13:16;4.97;;;2.30;;
27013;SDS011;14556;52.222;4.510;2022-08-19T11:15:43;5.97;;;2.13;;
27013;SDS011;14556;52.222;4.510;2022-08-19T11:18:11;6.33;;;2.40;;
27013;SDS011;14556;52.222;4.510;2022-08-19T11:20:38;3.23;;;2.07;;
27013;SDS011;14556;52.222;4.510;2022-08-19T11:23:05;2.80;;;1.90;;
27013;SDS011;14556;52.222;4.510;2022-08-19T11:25:31;2.90;;;1.80;;
27013;SDS011;14556;52.222;4.510;2022-08-19T11:27:58;3.37;;;2.20;;
27013;SDS011;14556;52.222;4.510;2022-08-19T11:30:24;3.13;;;1.60;;
27013;SDS011;14556;52.222;4.510;2022-08-19T11:32:50;3.93;;;1.87;;
27013;SDS011;14556;52.222;4.510;2022-08-19T11:35:17;5.33;;;1.90;;
27013;SDS011;14556;52.222;4.510;2022-08-19T11:37:46;4.00;;;2.00;;
27013;SDS011;14556;52.222;4.510;2022-08-19T11:40:13;7.70;;;2.00;;
27013;SDS011;14556;52.222;4.510;2022-08-19T11:42:40;3.17;;;1.70;;
27013;SDS011;14556;52.222;4.510;2022-08-19T11:45:22;3.27;;;2.00;;
27013;SDS011;14556;52.222;4.510;2022-08-19T11:47:50;5.67;;;1.73;;
27013;SDS011;14556;52.222;4.510;2022-08-19T11:50:17;3.10;;;1.97;;
27013;SDS011;14556;52.222;4.510;2022-08-19T11:52:44;4.67;;;2.00;;
27013;SDS011;14556;52.222;4.510;2022-08-19T11:55:11;4.80;;;2.07;;
27013;SDS011;14556;52.222;4.510;2022-08-19T11:57:40;3.03;;;1.53;;
27013;SDS011;14556;52.222;4.510;2022-08-19T12:00:09;4.27;;;1.90;;
27013;SDS011;14556;52.222;4.510;2022-08-19T12:02:38;5.50;;;1.73;;
27013;SDS011;14556;52.222;4.510;2022-08-19T12:05:06;2.63;;;1.63;;
27013;SDS011;14556;52.222;4.510;2022-08-19T12:07:38;3.83;;;1.73;;
27013;SDS011;14556;52.222;4.510;2022-08-19T12:10:05;4.47;;;1.83;;
27013;SDS011;14556;52.222;4.510;2022-08-19T12:12:33;2.50;;;1.43;;
27013;SDS011;14556;52.222;4.510;2022-08-19T12:15:00;4.47;;;1.80;;
27013;SDS011;14556;52.222;4.510;2022-08-19T12:17:26;4.63;;;1.87;;
27013;SDS011;14556;52.222;4.510;2022-08-19T12:19:53;3.73;;;1.77;;
27013;SDS011;14556;52.222;4.510;2022-08-19T12:22:20;3.67;;;1.80;;
27013;SDS011;14556;52.222;4.510;2022-08-19T12:24:47;2.63;;;1.60;;
27013;SDS011;14556;52.222;4.510;2022-08-19T12:27:16;4.77;;;2.13;;
27013;SDS011;14556;52.222;4.510;2022-08-19T12:30:03;4.53;;;1.60;;
27013;SDS011;14556;52.222;4.510;2022-08-19T12:32:31;3.83;;;1.40;;
27013;SDS011;14556;52.222;4.510;2022-08-19T12:34:57;4.50;;;2.17;;
27013;SDS011;14556;52.222;4.510;2022-08-19T12:37:25;1.93;;;1.73;;
27013;SDS011;14556;52.222;4.510;2022-08-19T12:39:51;2.43;;;1.33;;
27013;SDS011;14556;52.222;4.510;2022-08-19T12:42:18;4.33;;;1.50;;
27013;SDS011;14556;52.222;4.510;2022-08-19T12:44:45;1.57;;;1.47;;
27013;SDS011;14556;52.222;4.510;2022-08-19T12:47:12;5.60;;;1.80;;
27013;SDS011;14556;52.222;4.510;2022-08-19T12:49:45;5.33;;;1.77;;
27013;SDS011;14556;52.222;4.510;2022-08-19T12:52:21;3.50;;;1.80;;
27013;SDS011;14556;52.222;4.510;2022-08-19T12:54:51;4.00;;;1.67;;
27013;SDS011;14556;52.222;4.510;2022-08-19T12:57:24;2.10;;;1.80;;
27013;SDS011;14556;52.222;4.510;2022-08-19T13:00:03;2.90;;;1.80;;
27013;SDS011;14556;52.222;4.510;2022-08-19T13:02:39;4.77;;;1.80;;
27013;SDS011;14556;52.222;4.510;2022-08-19T13:05:10;2.73;;;2.27;;
27013;SDS011;14556;52.222;4.510;2022-08-19T13:07:40;3.37;;;2.10;;
27013;SDS011;14556;52.222;4.510;2022-08-19T13:10:07;3.60;;;1.60;;
27013;SDS011;14556;52.222;4.510;2022-08-19T13:12:35;2.90;;;2.20;;
27013;SDS011;14556;52.222;4.510;2022-08-19T13:15:02;3.83;;;1.80;;
27013;SDS011;14556;52.222;4.510;2022-08-19T13:17:36;2.93;;;2.10;;
27013;SDS011;14556;52.222;4.510;2022-08-19T13:20:04;2.70;;;1.87;;
27013;SDS011;14556;52.222;4.510;2022-08-19T13:22:33;5.80;;;2.23;;
27013;SDS011;14556;52.222;4.510;2022-08-19T13:25:02;3.77;;;2.00;;
27013;SDS011;14556;52.222;4.510;2022-08-19T13:27:32;1.83;;;1.73;;
27013;SDS011;14556;52.222;4.510;2022-08-19T13:29:59;2.00;;;1.57;;
27013;SDS011;14556;52.222;4.510;2022-08-19T13:32:44;3.20;;;1.83;;
27013;SDS011;14556;52.222;4.510;2022-08-19T13:35:29;3.10;;;1.67;;
27013;SDS011;14556;52.222;4.510;2022-08-19T13:37:56;3.80;;;1.73;;
27013;SDS011;14556;52.222;4.510;2022-08-19T13:40:23;4.10;;;2.00;;
27013;SDS011;14556;52.222;4.510;2022-08-19T13:42:53;1.93;;;1.73;;
27013;SDS011;14556;52.222;4.510;2022-08-19T13:45:21;4.77;;;1.97;;
27013;SDS011;14556;52.222;4.510;2022-08-19T13:47:51;3.00;;;1.57;;
27013;SDS011;14556;52.222;4.510;2022-08-19T13:50:28;3.33;;;1.60;;
27013;SDS011;14556;52.222;4.510;2022-08-19T13:52:57;2.90;;;2.10;;
27013;SDS011;14556;52.222;4.510;2022-08-19T13:55:24;1.90;;;1.40;;
27013;SDS011;14556;52.222;4.510;2022-08-19T13:57:53;4.30;;;2.37;;
27013;SDS011;14556;52.222;4.510;2022-08-19T14:00:23;3.07;;;1.80;;
27013;SDS011;14556;52.222;4.510;2022-08-19T14:02:54;4.57;;;1.67;;
27013;SDS011;14556;52.222;4.510;2022-08-19T14:05:22;3.20;;;2.00;;
27013;SDS011;14556;52.222;4.510;2022-08-19T14:07:50;2.90;;;2.07;;
27013;SDS011;14556;52.222;4.510;2022-08-19T14:10:17;6.90;;;2.13;;
27013;SDS011;14556;52.222;4.510;2022-08-19T14:12:44;2.20;;;1.73;;
27013;SDS011;14556;52.222;4.510;2022-08-19T14:15:11;2.53;;;1.80;;
27013;SDS011;14556;52.222;4.510;2022-08-19T14:17:44;3.47;;;1.83;;
27013;SDS011;14556;52.222;4.510;2022-08-19T14:20:13;3.93;;;1.90;;
27013;SDS011;14556;52.222;4.510;2022-08-19T14:22:44;3.50;;;2.00;;
27013;SDS011;14556;52.222;4.510;2022-08-19T14:25:13;1.87;;;1.57;;
27013;SDS011;14556;52.222;4.510;2022-08-19T14:27:41;2.47;;;1.73;;
27013;SDS011;14556;52.222;4.510;2022-08-19T14:30:09;2.00;;;1.90;;
27013;SDS011;14556;52.222;4.510;2022-08-19T14:32:38;2.90;;;2.43;;
27013;SDS011;14556;52.222;4.510;2022-08-19T14:35:05;3.80;;;2.23;;
27013;SDS011;14556;52.222;4.510;2022-08-19T14:37:33;4.77;;;2.40;;
27013;SDS011;14556;52.222;4.510;2022-08-19T14:40:10;4.57;;;1.80;;
27013;SDS011;14556;52.222;4.510;2022-08-19T14:42:38;2.37;;;1.93;;
27013;SDS011;14556;52.222;4.510;2022-08-19T14:45:04;3.50;;;2.03;;
27013;SDS011;14556;52.222;4.510;2022-08-19T14:47:31;3.93;;;2.13;;
27013;SDS011;14556;52.222;4.510;2022-08-19T14:49:58;5.77;;;2.20;;
27013;SDS011;14556;52.222;4.510;2022-08-19T14:52:24;2.37;;;2.17;;
27013;SDS011;14556;52.222;4.510;2022-08-19T14:54:52;3.10;;;1.67;;
27013;SDS011;14556;52.222;4.510;2022-08-19T14:57:18;2.47;;;1.93;;
27013;SDS011;14556;52.222;4.510;2022-08-19T14:59:45;1.93;;;1.80;;
27013;SDS011;14556;52.222;4.510;2022-08-19T15:02:11;2.80;;;1.83;;
27013;SDS011;14556;52.222;4.510;2022-08-19T15:04:58;2.27;;;1.60;;
27013;SDS011;14556;52.222;4.510;2022-08-19T15:07:24;2.27;;;1.70;;
27013;SDS011;14556;52.222;4.510;2022-08-19T15:09:55;2.63;;;1.50;;